Terminal Aerodrome Forecast
Issued by NWS

Home | Current Version | Previous Version | Text Only | Print | Product List | Glossary On
Versions: 1 2 3 4 5 6 7 8 9 10 11 12 13 14 15 16 17 18 19 20 21 22 23
000
FTUS41 KBOX 201729
TAFACK
TAF
KACK 201729Z 2018/2118 16013KT P6SM SKC
     FM210400 16009KT P6SM BKN060
     FM210900 15010G17KT 3SM BR BKN015
     FM211200 15012KT 2SM BR OVC015
     FM211400 15012KT 3SM -SHRA BR OVC015
     FM211700 14010KT 3SM BR OVC015=

USA.gov is the U.S. government's official web portal to all federal, state and local government web resources and services.